Time;durP1;ratioP1;P1;durP2;ratioP2;P2;SDS_P1;SDS_P2;PMS_P1;PMS_P2;Temp;Humidity;BMP_temperature;BMP_pressure;BME280_temperature;BME280_humidity;BME280_pressure;Samples;Min_cycle;Max_cycle;Signal;HPM_P1;HPM_P2
2024/02/21 00:00:17;;;;;;;14.07;10.33;;;9.80;24.40;;;;;;4905634;29;20193;-81
2024/02/21 00:02:42;;;;;;;10.40;9.43;;;9.70;24.70;;;;;;4884608;29;20213;-81
2024/02/21 00:05:08;;;;;;;10.90;10.10;;;9.80;24.50;;;;;;4891459;29;20427;-81
2024/02/21 00:07:33;;;;;;;11.23;10.20;;;9.80;24.20;;;;;;4896213;29;20218;-81
2024/02/21 00:09:59;;;;;;;10.57;9.73;;;9.80;24.50;;;;;;4873613;29;20186;-81
2024/02/21 00:12:24;;;;;;;11.37;9.70;;;9.90;24.10;;;;;;4881227;29;20224;-81
2024/02/21 00:14:50;;;;;;;11.13;10.07;;;10.00;23.60;;;;;;4881409;29;20195;-81
2024/02/21 00:17:15;;;;;;;9.10;8.50;;;10.00;23.20;;;;;;4884573;29;20213;-81
2024/02/21 00:19:41;;;;;;;10.73;10.03;;;10.10;23.30;;;;;;4887331;29;20245;-81
2024/02/21 00:22:08;;;;;;;9.73;8.93;;;10.20;23.30;;;;;;4872278;29;20202;-81
2024/02/21 00:24:33;;;;;;;9.03;8.43;;;10.20;22.80;;;;;;4904678;29;20177;-81
2024/02/21 00:26:59;;;;;;;10.60;9.57;;;10.30;23.00;;;;;;4897688;29;20470;-81
2024/02/21 00:29:24;;;;;;;9.47;8.63;;;10.30;22.40;;;;;;4883552;29;20678;-81
2024/02/21 00:31:50;;;;;;;8.60;7.90;;;10.30;22.40;;;;;;4881114;29;20217;-81
2024/02/21 00:34:16;;;;;;;9.47;8.87;;;10.40;22.50;;;;;;4885591;29;20672;-81
2024/02/21 00:36:41;;;;;;;9.60;8.73;;;10.50;22.50;;;;;;4884828;29;20502;-81
2024/02/21 00:39:07;;;;;;;9.83;9.20;;;10.50;22.00;;;;;;4892938;29;20196;-81
2024/02/21 00:41:33;;;;;;;9.67;8.70;;;10.50;21.70;;;;;;4889213;29;20217;-81
2024/02/21 00:43:58;;;;;;;9.80;9.03;;;10.40;21.90;;;;;;4887720;29;20192;-81
2024/02/21 00:46:24;;;;;;;10.17;9.07;;;10.30;22.20;;;;;;4876337;29;20670;-81
2024/02/21 00:48:50;;;;;;;9.67;8.97;;;10.20;22.60;;;;;;4879649;29;20202;-80
2024/02/21 00:51:16;;;;;;;10.53;9.53;;;9.90;23.90;;;;;;4884201;29;20193;-80
2024/02/21 00:53:42;;;;;;;10.30;9.47;;;9.80;23.90;;;;;;4878211;29;20790;-80
2024/02/21 00:56:08;;;;;;;9.70;9.00;;;9.70;24.60;;;;;;4887810;29;20200;-81
2024/02/21 00:58:34;;;;;;;10.60;9.70;;;9.70;24.30;;;;;;4899623;29;20427;-80
2024/02/21 01:01:01;;;;;;;10.33;9.57;;;9.70;24.50;;;;;;4873384;29;20238;-80
2024/02/21 01:03:26;;;;;;;9.50;8.90;;;9.60;24.60;;;;;;4896389;29;20197;-81
2024/02/21 01:05:52;;;;;;;11.57;10.37;;;9.60;25.00;;;;;;4883080;29;20430;-80
2024/02/21 01:08:17;;;;;;;10.20;9.30;;;9.60;24.80;;;;;;4886924;29;20572;-80
2024/02/21 01:10:43;;;;;;;10.10;9.37;;;9.50;25.00;;;;;;4891033;29;20202;-80
2024/02/21 01:13:09;;;;;;;10.80;9.90;;;9.40;25.20;;;;;;4871345;29;20250;-80
2024/02/21 01:15:35;;;;;;;10.33;9.60;;;9.60;25.20;;;;;;4875496;29;20166;-81
2024/02/21 01:18:01;;;;;;;10.73;9.53;;;9.60;24.70;;;;;;4894686;29;20186;-80
2024/02/21 01:20:26;;;;;;;11.60;10.60;;;9.50;24.90;;;;;;4898785;29;20513;-80
2024/02/21 01:22:52;;;;;;;11.47;9.70;;;9.50;24.70;;;;;;4893603;29;20193;-80
2024/02/21 01:25:17;;;;;;;10.63;9.70;;;9.40;25.20;;;;;;4878365;29;20249;-80
2024/02/21 01:27:43;;;;;;;11.77;10.87;;;9.50;25.60;;;;;;4872563;29;20201;-80
2024/02/21 01:30:10;;;;;;;10.37;9.53;;;9.60;25.10;;;;;;4894877;29;20237;-80
2024/02/21 01:32:36;;;;;;;9.83;9.00;;;9.70;25.30;;;;;;4887928;29;20177;-81
2024/02/21 01:35:01;;;;;;;10.13;9.23;;;9.80;24.20;;;;;;4895266;29;20430;-81
2024/02/21 01:37:27;;;;;;;9.60;8.80;;;9.70;24.10;;;;;;4887601;29;20251;-80
2024/02/21 01:39:53;;;;;;;10.80;9.97;;;9.80;24.00;;;;;;4888213;29;20233;-80
2024/02/21 01:42:18;;;;;;;10.70;9.80;;;9.80;24.20;;;;;;4894384;29;20225;-81
2024/02/21 01:44:44;;;;;;;13.20;9.80;;;9.70;23.80;;;;;;4880095;29;20421;-81
2024/02/21 01:47:13;;;;;;;10.33;9.50;;;9.60;24.70;;;;;;4894453;29;20201;-80
2024/02/21 01:49:40;;;;;;;10.83;9.80;;;9.50;24.60;;;;;;4893865;29;20186;-81
2024/02/21 01:52:05;;;;;;;11.17;9.97;;;9.40;24.80;;;;;;4884976;29;20477;-81
2024/02/21 01:54:32;;;;;;;9.50;8.60;;;9.50;24.70;;;;;;4873744;29;20466;-81
2024/02/21 01:56:57;;;;;;;9.37;8.53;;;9.40;24.60;;;;;;4889470;29;20686;-80
2024/02/21 01:59:23;;;;;;;9.63;8.97;;;9.50;24.40;;;;;;4884905;29;20489;-80
2024/02/21 02:01:51;;;;;;;9.70;8.77;;;9.60;24.60;;;;;;4877631;29;20513;-81
2024/02/21 02:04:16;;;;;;;9.90;8.97;;;9.60;24.00;;;;;;4894733;29;20189;-80
2024/02/21 02:06:42;;;;;;;9.20;8.50;;;9.50;24.70;;;;;;4894358;29;20469;-80
2024/02/21 02:09:08;;;;;;;9.60;8.80;;;9.40;24.40;;;;;;4892567;29;20206;-81
2024/02/21 02:11:34;;;;;;;10.13;9.30;;;9.40;24.50;;;;;;4880690;29;20803;-80
2024/02/21 02:13:59;;;;;;;10.40;9.60;;;9.50;25.10;;;;;;4889128;29;20434;-80
2024/02/21 02:16:25;;;;;;;10.23;9.50;;;9.40;24.50;;;;;;4879364;29;20184;-81
2024/02/21 02:18:50;;;;;;;9.37;8.47;;;9.30;24.70;;;;;;4891461;29;20181;-80
2024/02/21 02:21:29;;;;;;;10.53;9.70;;;9.30;24.70;;;;;;4881975;29;20205;-80
2024/02/21 02:23:56;;;;;;;10.00;9.20;;;9.20;25.20;;;;;;4893059;29;20222;-80
2024/02/21 02:26:21;;;;;;;9.83;9.03;;;9.30;25.20;;;;;;4883300;29;20428;-81
2024/02/21 02:28:47;;;;;;;10.20;9.40;;;9.20;25.00;;;;;;4884848;29;20422;-80
2024/02/21 02:31:12;;;;;;;10.13;8.47;;;9.30;25.10;;;;;;4876788;29;20268;-80
2024/02/21 02:33:38;;;;;;;10.13;9.20;;;9.30;24.80;;;;;;4877353;29;20237;-80
2024/02/21 02:36:04;;;;;;;9.47;8.73;;;9.20;24.70;;;;;;4882055;29;20186;-81
2024/02/21 02:38:29;;;;;;;9.97;9.20;;;9.20;24.90;;;;;;4897406;29;20189;-81
2024/02/21 02:40:55;;;;;;;9.40;8.70;;;9.30;24.90;;;;;;4911005;23;20507;-79
2024/02/21 02:43:20;;;;;;;10.27;9.50;;;9.30;24.70;;;;;;4937161;29;20381;-77
2024/02/21 02:45:46;;;;;;;9.77;8.90;;;9.50;24.20;;;;;;4937852;29;20554;-78
2024/02/21 02:48:11;;;;;;;9.73;9.00;;;9.40;24.20;;;;;;4937204;29;20264;-77
2024/02/21 02:50:37;;;;;;;9.57;9.00;;;9.30;24.80;;;;;;4936356;29;20188;-77
2024/02/21 02:53:02;;;;;;;9.70;9.00;;;9.20;25.40;;;;;;4919592;29;20657;-78
2024/02/21 02:55:28;;;;;;;9.90;9.20;;;9.10;25.50;;;;;;4917916;29;20231;-77
2024/02/21 02:57:54;;;;;;;10.43;9.63;;;9.20;26.10;;;;;;4920513;29;20185;-78
2024/02/21 03:00:20;;;;;;;10.43;9.63;;;9.20;25.70;;;;;;4920002;29;20653;-78
2024/02/21 03:02:48;;;;;;;9.80;9.00;;;9.20;25.90;;;;;;4919861;29;20471;-77
2024/02/21 03:05:15;;;;;;;12.67;10.60;;;9.20;26.40;;;;;;4919630;29;20281;-77
2024/02/21 03:07:42;;;;;;;10.03;9.40;;;9.20;26.50;;;;;;4920485;29;20484;-77
2024/02/21 03:10:08;;;;;;;10.70;9.97;;;9.30;26.10;;;;;;4924337;29;20496;-77
2024/02/21 03:12:33;;;;;;;11.03;10.23;;;9.20;26.60;;;;;;4926055;29;20452;-77
2024/02/21 03:14:59;;;;;;;11.30;10.43;;;9.20;27.30;;;;;;4922043;29;20523;-78
2024/02/21 03:17:26;;;;;;;10.50;9.53;;;9.40;27.60;;;;;;4918830;29;20291;-78
2024/02/21 03:19:52;;;;;;;10.23;9.33;;;9.60;26.90;;;;;;4917364;29;20219;-78
2024/02/21 03:22:18;;;;;;;10.30;9.63;;;9.80;26.00;;;;;;4920014;29;20448;-78
2024/02/21 03:24:44;;;;;;;10.63;10.00;;;9.90;25.60;;;;;;4917805;29;20212;-78
2024/02/21 03:27:09;;;;;;;10.27;9.63;;;9.80;26.30;;;;;;4918455;29;20381;-78
2024/02/21 03:29:35;;;;;;;10.43;9.70;;;9.60;27.10;;;;;;4909191;29;20664;-78
2024/02/21 03:32:00;;;;;;;10.93;10.10;;;9.70;26.70;;;;;;4917693;29;20208;-78
2024/02/21 03:34:26;;;;;;;10.77;10.17;;;9.70;26.70;;;;;;4927636;29;20196;-77
2024/02/21 03:36:51;;;;;;;10.80;9.90;;;9.70;26.70;;;;;;4919631;29;20223;-77
2024/02/21 03:39:17;;;;;;;11.43;10.60;;;9.70;27.10;;;;;;4917844;29;20553;-79
2024/02/21 03:41:43;;;;;;;11.27;10.47;;;9.80;27.10;;;;;;4917811;29;20309;-79
2024/02/21 03:44:08;;;;;;;11.30;10.40;;;9.90;27.00;;;;;;4925901;29;20197;-78
2024/02/21 03:46:34;;;;;;;10.67;9.97;;;10.10;26.40;;;;;;4925719;29;20445;-79
2024/02/21 03:49:00;;;;;;;11.00;10.10;;;10.10;24.70;;;;;;4916673;29;20657;-79
2024/02/21 03:51:26;;;;;;;11.37;10.67;;;10.20;24.80;;;;;;4917176;29;20201;-78
2024/02/21 03:53:51;;;;;;;11.23;10.53;;;10.20;24.60;;;;;;4918822;29;20441;-78
2024/02/21 03:56:17;;;;;;;11.07;10.33;;;10.10;24.60;;;;;;4917306;29;20185;-78
2024/02/21 03:58:43;;;;;;;11.30;10.37;;;10.10;25.20;;;;;;4917454;29;20188;-78
2024/02/21 04:01:08;;;;;;;11.83;10.73;;;10.10;25.00;;;;;;4916698;29;20216;-78
2024/02/21 04:03:34;;;;;;;10.27;9.70;;;10.00;24.60;;;;;;4917144;29;20224;-79
2024/02/21 04:06:00;;;;;;;9.90;9.20;;;9.90;24.90;;;;;;4915601;29;20260;-77
2024/02/21 04:08:25;;;;;;;10.80;10.00;;;9.70;25.20;;;;;;4918359;29;20678;-77
2024/02/21 04:10:51;;;;;;;11.30;10.50;;;9.50;25.70;;;;;;4916552;29;20491;-77
2024/02/21 04:13:16;;;;;;;10.40;9.80;;;9.50;25.70;;;;;;4915216;29;20247;-79
2024/02/21 04:15:42;;;;;;;10.60;9.67;;;9.50;25.70;;;;;;4916199;29;20192;-77
2024/02/21 04:18:07;;;;;;;11.40;10.40;;;9.50;25.50;;;;;;4916639;29;20619;-78
2024/02/21 04:20:34;;;;;;;10.83;10.00;;;9.60;25.60;;;;;;4914730;29;20192;-78
2024/02/21 04:23:00;;;;;;;10.83;10.10;;;9.90;25.20;;;;;;4917748;29;20189;-77
2024/02/21 04:25:26;;;;;;;10.80;10.00;;;10.00;24.10;;;;;;4917395;29;21023;-77
2024/02/21 04:27:51;;;;;;;10.37;9.70;;;10.00;23.20;;;;;;4914759;29;20259;-77
2024/02/21 04:30:17;;;;;;;11.10;10.30;;;10.00;23.20;;;;;;4913974;29;20228;-77
2024/02/21 04:32:43;;;;;;;11.30;10.53;;;9.90;23.80;;;;;;4916206;29;20215;-77
2024/02/21 04:35:08;;;;;;;10.33;9.60;;;10.00;23.50;;;;;;4915516;29;20197;-78
2024/02/21 04:37:34;;;;;;;10.27;9.67;;;10.20;23.30;;;;;;4915113;29;20330;-78
2024/02/21 04:40:00;;;;;;;11.20;10.07;;;10.40;24.00;;;;;;4916332;29;20196;-78
2024/02/21 04:42:26;;;;;;;10.87;10.17;;;10.60;22.50;;;;;;4917360;29;20216;-78
2024/02/21 04:44:52;;;;;;;9.90;9.00;;;10.80;21.80;;;;;;4922312;29;20443;-78
2024/02/21 04:47:19;;;;;;;9.97;9.17;;;10.80;21.30;;;;;;4922449;29;20212;-78
2024/02/21 04:49:44;;;;;;;9.80;9.10;;;10.80;20.60;;;;;;4921108;29;20432;-78
2024/02/21 04:52:10;;;;;;;9.83;9.23;;;10.80;20.90;;;;;;4922059;29;20473;-78
2024/02/21 04:54:35;;;;;;;11.67;9.10;;;10.80;20.70;;;;;;4921108;29;20180;-78
2024/02/21 04:57:01;;;;;;;9.30;8.63;;;10.90;20.60;;;;;;4922756;29;20192;-77
2024/02/21 04:59:26;;;;;;;10.10;9.40;;;11.00;20.80;;;;;;4925649;29;20204;-79
2024/02/21 05:01:52;;;;;;;9.37;8.73;;;11.00;20.20;;;;;;4922799;29;20252;-78
2024/02/21 05:04:18;;;;;;;9.70;9.00;;;11.10;20.10;;;;;;4923389;29;20192;-77
2024/02/21 05:06:43;;;;;;;10.63;10.00;;;11.10;19.50;;;;;;4923308;29;20196;-77
2024/02/21 05:09:09;;;;;;;9.63;9.03;;;11.20;19.20;;;;;;4922157;29;20232;-77
2024/02/21 05:11:36;;;;;;;9.47;8.77;;;11.20;18.80;;;;;;4931031;29;20216;-77
2024/02/21 05:14:02;;;;;;;10.03;9.47;;;11.20;18.70;;;;;;4923118;29;20303;-78
2024/02/21 05:16:28;;;;;;;10.23;9.63;;;11.20;18.60;;;;;;4929331;29;20483;-77
2024/02/21 05:18:53;;;;;;;10.53;9.83;;;11.20;18.80;;;;;;4921930;29;20432;-79
2024/02/21 05:21:19;;;;;;;9.37;8.70;;;11.20;18.70;;;;;;4929333;29;20208;-78
2024/02/21 05:23:44;;;;;;;9.47;8.90;;;11.20;19.00;;;;;;4923730;29;20188;-77
2024/02/21 05:26:10;;;;;;;10.63;10.13;;;11.20;18.90;;;;;;4923759;29;20196;-76
2024/02/21 05:28:35;;;;;;;10.50;9.60;;;11.10;18.80;;;;;;4920596;29;20208;-78
2024/02/21 05:31:01;;;;;;;9.60;9.00;;;10.90;18.10;;;;;;4913892;29;20308;-78
2024/02/21 05:33:26;;;;;;;9.37;8.77;;;10.70;19.30;;;;;;4915833;29;20332;-78
2024/02/21 05:35:53;;;;;;;9.13;8.63;;;10.70;19.90;;;;;;4918866;29;20196;-77
2024/02/21 05:38:18;;;;;;;10.10;9.40;;;10.70;18.90;;;;;;4915471;29;20200;-77
2024/02/21 05:40:47;;;;;;;8.53;8.00;;;10.70;19.60;;;;;;4918638;29;20443;-77
2024/02/21 05:43:13;;;;;;;8.83;8.23;;;10.60;19.90;;;;;;4918112;29;20645;-77
2024/02/21 05:45:39;;;;;;;10.07;9.13;;;10.60;19.50;;;;;;4917563;29;20435;-77
2024/02/21 05:48:04;;;;;;;8.57;8.07;;;10.40;19.90;;;;;;4918791;29;20468;-77
2024/02/21 05:50:30;;;;;;;10.37;8.77;;;10.50;20.50;;;;;;4917937;29;20185;-77
2024/02/21 05:52:56;;;;;;;8.73;8.30;;;10.50;19.90;;;;;;4918718;29;20193;-78
2024/02/21 05:55:22;;;;;;;9.53;8.63;;;10.50;19.40;;;;;;4919672;29;20271;-77
2024/02/21 05:57:48;;;;;;;9.67;8.93;;;10.40;19.40;;;;;;4914526;29;20193;-78
2024/02/21 06:00:14;;;;;;;9.40;8.63;;;10.30;19.00;;;;;;4915060;29;20447;-77
2024/02/21 06:02:40;;;;;;;9.53;8.83;;;9.90;20.00;;;;;;4917932;29;20204;-78
2024/02/21 06:05:07;;;;;;;9.40;8.57;;;9.70;22.10;;;;;;4920061;29;20499;-77
2024/02/21 06:07:33;;;;;;;9.43;8.73;;;9.70;22.30;;;;;;4918251;29;20303;-77
2024/02/21 06:09:59;;;;;;;9.00;8.20;;;9.40;21.90;;;;;;4917370;29;20433;-78
2024/02/21 06:12:25;;;;;;;8.77;8.13;;;9.40;22.10;;;;;;4919955;29;20555;-78
2024/02/21 06:14:50;;;;;;;9.63;8.93;;;9.40;22.10;;;;;;4920081;29;20441;-77
2024/02/21 06:17:16;;;;;;;9.60;8.73;;;9.40;22.00;;;;;;4920554;29;20540;-78
2024/02/21 06:19:43;;;;;;;8.70;8.13;;;9.40;22.00;;;;;;4919795;29;20192;-79
2024/02/21 06:22:08;;;;;;;9.40;8.73;;;9.40;22.60;;;;;;4921562;29;20220;-78
2024/02/21 06:24:36;;;;;;;8.40;7.83;;;9.30;22.30;;;;;;4920026;29;20448;-79
2024/02/21 06:27:02;;;;;;;9.80;9.17;;;9.30;23.40;;;;;;4924459;29;20340;-78
2024/02/21 06:29:33;;;;;;;10.03;9.33;;;9.30;21.90;;;;;;4921931;29;20663;-77
2024/02/21 06:31:59;;;;;;;10.27;9.37;;;9.10;22.70;;;;;;4919923;29;20477;-78
2024/02/21 06:34:25;;;;;;;9.40;8.80;;;9.00;22.90;;;;;;4921629;29;20427;-78
2024/02/21 06:36:51;;;;;;;10.13;9.40;;;8.90;23.20;;;;;;4917772;29;20192;-78
2024/02/21 06:39:16;;;;;;;9.60;8.93;;;9.00;23.30;;;;;;4916771;29;20221;-77
2024/02/21 06:41:42;;;;;;;9.80;9.30;;;9.30;23.50;;;;;;4919447;29;20228;-78
2024/02/21 06:44:08;;;;;;;10.60;9.70;;;9.60;22.30;;;;;;4920180;29;20216;-77
2024/02/21 06:46:34;;;;;;;9.50;8.90;;;9.80;21.80;;;;;;4923804;29;20500;-77
2024/02/21 06:49:00;;;;;;;10.67;9.80;;;9.70;21.40;;;;;;4924523;29;20215;-77
2024/02/21 06:51:26;;;;;;;9.57;8.67;;;9.60;22.00;;;;;;4923413;29;20215;-77
2024/02/21 06:53:53;;;;;;;10.20;9.50;;;9.50;22.40;;;;;;4924078;29;20444;-77
2024/02/21 06:56:18;;;;;;;10.30;9.57;;;9.20;22.50;;;;;;4921418;29;20443;-77
2024/02/21 06:58:44;;;;;;;10.70;10.00;;;9.20;22.50;;;;;;4917896;29;20444;-78
2024/02/21 07:01:10;;;;;;;9.37;8.80;;;9.30;22.50;;;;;;4919562;29;20220;-77
2024/02/21 07:03:36;;;;;;;10.77;9.83;;;9.30;22.30;;;;;;4917116;29;20476;-77
2024/02/21 07:06:02;;;;;;;9.03;8.43;;;9.10;22.40;;;;;;4917839;29;20445;-79
2024/02/21 07:08:28;;;;;;;9.47;8.97;;;8.80;22.80;;;;;;4916066;29;20478;-77
2024/02/21 07:10:53;;;;;;;10.57;9.77;;;8.80;23.20;;;;;;4918472;29;20565;-77
2024/02/21 07:13:19;;;;;;;10.23;9.50;;;8.80;23.20;;;;;;4918588;29;20676;-79
2024/02/21 07:15:44;;;;;;;11.63;10.50;;;8.90;23.20;;;;;;4917277;29;20267;-79
2024/02/21 07:18:10;;;;;;;10.60;10.00;;;8.90;23.20;;;;;;4924172;29;20216;-77
2024/02/21 07:20:38;;;;;;;9.83;9.03;;;8.90;23.20;;;;;;4926047;29;20192;-77
2024/02/21 07:23:04;;;;;;;9.33;8.73;;;8.80;23.20;;;;;;4917625;29;20188;-77
2024/02/21 07:25:30;;;;;;;9.40;8.80;;;8.70;23.10;;;;;;4923242;29;20498;-79
2024/02/21 07:27:55;;;;;;;9.40;8.80;;;8.80;23.10;;;;;;4933628;29;20685;-77
2024/02/21 07:30:21;;;;;;;9.67;8.97;;;8.70;23.10;;;;;;4932864;29;20188;-78
2024/02/21 07:32:50;;;;;;;9.37;8.77;;;8.70;23.10;;;;;;4924816;29;20200;-80
2024/02/21 07:35:19;;;;;;;21.47;19.73;;;8.70;23.10;;;;;;4891578;28;20267;-79
2024/02/21 07:37:55;;;;;;;9.60;8.90;;;8.80;23.20;;;;;;4920216;29;20518;-79
2024/02/21 07:40:21;;;;;;;10.53;9.70;;;8.90;22.90;;;;;;4922233;29;20443;-79
2024/02/21 07:42:46;;;;;;;9.50;9.00;;;8.90;22.90;;;;;;4925681;29;20540;-78
2024/02/21 07:45:12;;;;;;;9.27;8.60;;;9.10;22.90;;;;;;4918987;29;20188;-78
2024/02/21 07:47:37;;;;;;;9.87;8.63;;;9.10;22.30;;;;;;4913796;29;20212;-79
2024/02/21 07:50:04;;;;;;;9.50;8.70;;;9.20;22.60;;;;;;4914507;29;20223;-78
2024/02/21 07:52:29;;;;;;;8.97;8.30;;;9.20;22.20;;;;;;4915943;29;20212;-78
2024/02/21 07:54:55;;;;;;;9.17;8.47;;;9.10;22.30;;;;;;4915769;29;20449;-79
2024/02/21 07:57:21;;;;;;;9.20;8.50;;;9.00;23.00;;;;;;4918724;29;20199;-79
2024/02/21 07:59:47;;;;;;;9.87;9.07;;;8.90;23.10;;;;;;4910425;29;20216;-79
2024/02/21 08:02:14;;;;;;;9.80;8.90;;;8.90;23.30;;;;;;4917447;29;20491;-78
2024/02/21 08:04:39;;;;;;;10.60;9.60;;;8.90;23.20;;;;;;4911594;29;20200;-80
2024/02/21 08:07:05;;;;;;;9.53;8.80;;;8.90;23.20;;;;;;4919758;29;21056;-80
2024/02/21 08:09:30;;;;;;;9.77;9.07;;;8.90;23.00;;;;;;4916132;29;20188;-78
2024/02/21 08:11:56;;;;;;;9.37;8.57;;;9.00;22.90;;;;;;4919063;29;20279;-78
2024/02/21 08:14:24;;;;;;;9.80;9.10;;;9.10;22.80;;;;;;4913917;29;20216;-79
2024/02/21 08:16:53;;;;;;;9.20;8.60;;;9.20;22.50;;;;;;4918399;29;20189;-82
2024/02/21 08:19:19;;;;;;;9.17;8.37;;;9.30;22.10;;;;;;4907564;29;20901;-79
2024/02/21 08:21:46;;;;;;;9.20;8.60;;;9.40;21.70;;;;;;4910820;29;20440;-80
2024/02/21 08:24:12;;;;;;;9.80;9.27;;;9.60;21.60;;;;;;4915005;29;20437;-79
2024/02/21 08:26:40;;;;;;;9.10;8.50;;;9.70;21.10;;;;;;4914353;29;20456;-79
2024/02/21 08:29:07;;;;;;;10.33;9.40;;;9.90;21.00;;;;;;4910373;29;20453;-78
2024/02/21 08:31:34;;;;;;;9.60;8.90;;;10.00;19.70;;;;;;4908092;29;20552;-78
2024/02/21 08:34:03;;;;;;;11.10;10.10;;;10.10;19.50;;;;;;4915802;29;20492;-79
2024/02/21 08:36:35;;;;;;;9.53;8.73;;;10.00;19.70;;;;;;4917289;29;20435;-78
2024/02/21 08:39:03;;;;;;;10.00;9.23;;;10.00;19.80;;;;;;4913977;29;20448;-78
2024/02/21 08:41:31;;;;;;;8.77;8.23;;;10.00;20.10;;;;;;4909868;29;20555;-79
2024/02/21 08:43:56;;;;;;;9.40;8.60;;;10.00;19.80;;;;;;4916192;29;20519;-79
2024/02/21 08:46:24;;;;;;;9.97;9.17;;;10.00;19.60;;;;;;4918142;29;20452;-79
2024/02/21 08:48:51;;;;;;;8.43;7.73;;;9.90;20.50;;;;;;4908398;29;20246;-78
2024/02/21 08:51:16;;;;;;;9.13;8.33;;;9.80;21.00;;;;;;4912590;29;20544;-79
2024/02/21 08:53:42;;;;;;;9.30;8.40;;;9.80;21.10;;;;;;4912635;29;20942;-78
2024/02/21 08:56:07;;;;;;;10.00;9.00;;;9.90;21.00;;;;;;4908370;29;20547;-79
2024/02/21 08:58:35;;;;;;;9.23;8.37;;;10.10;20.00;;;;;;4914725;29;20556;-79
2024/02/21 09:01:00;;;;;;;8.00;7.60;;;10.20;19.90;;;;;;4918019;29;20212;-80
2024/02/21 09:03:26;;;;;;;8.60;7.77;;;10.10;19.50;;;;;;4915277;29;20455;-81
2024/02/21 09:05:51;;;;;;;8.00;7.50;;;10.20;19.40;;;;;;4914905;29;20197;-78
2024/02/21 09:08:18;;;;;;;9.63;8.60;;;10.10;19.80;;;;;;4914679;29;20212;-78
2024/02/21 09:10:43;;;;;;;8.40;7.57;;;10.10;19.70;;;;;;4908685;29;20195;-81
2024/02/21 09:13:09;;;;;;;8.70;8.00;;;10.10;19.80;;;;;;4914069;29;20441;-80
2024/02/21 09:15:34;;;;;;;8.83;8.07;;;10.20;19.80;;;;;;4915273;29;20252;-79
2024/02/21 09:18:00;;;;;;;8.43;7.80;;;10.20;19.30;;;;;;4915609;29;20228;-80
2024/02/21 09:20:55;;;;;;;8.20;7.50;;;10.20;19.30;;;;;;4912769;29;20197;-80
2024/02/21 09:23:24;;;;;;;8.20;7.53;;;10.30;19.20;;;;;;4910636;29;20216;-79
2024/02/21 09:25:52;;;;;;;8.97;8.37;;;10.40;19.10;;;;;;4921454;29;20421;-79
2024/02/21 09:28:18;;;;;;;8.83;8.23;;;10.40;19.10;;;;;;4916276;29;20473;-78
2024/02/21 09:30:44;;;;;;;9.77;8.90;;;10.50;18.70;;;;;;4915653;29;20196;-79
2024/02/21 09:33:09;;;;;;;9.03;8.50;;;10.60;18.80;;;;;;4924120;29;20440;-81
2024/02/21 09:35:35;;;;;;;8.77;8.07;;;10.70;18.40;;;;;;4919900;29;20201;-80
2024/02/21 09:38:01;;;;;;;9.33;8.63;;;10.80;18.10;;;;;;4914522;29;20262;-78
2024/02/21 09:40:27;;;;;;;8.87;8.10;;;10.80;17.90;;;;;;4925826;29;20195;-79
2024/02/21 09:43:06;;;;;;;12.40;11.50;;;10.80;17.80;;;;;;4925572;29;20472;-78
2024/02/21 09:45:46;;;;;;;8.83;8.10;;;10.80;17.40;;;;;;4925764;29;20199;-80
2024/02/21 09:48:31;;;;;;;8.37;7.80;;;10.80;17.60;;;;;;4924466;29;20578;-79
2024/02/21 09:50:59;;;;;;;8.33;7.70;;;10.90;17.60;;;;;;4924730;29;20464;-77
2024/02/21 09:53:24;;;;;;;8.43;7.93;;;10.90;18.00;;;;;;4928779;29;20477;-78
2024/02/21 09:55:50;;;;;;;8.30;7.70;;;11.00;17.20;;;;;;4933831;29;20458;-78
2024/02/21 09:58:16;;;;;;;8.50;7.77;;;11.00;17.10;;;;;;4943622;29;20447;-77
2024/02/21 10:01:01;;;;;;;9.17;8.53;;;11.10;16.90;;;;;;4926998;29;20460;-77
2024/02/21 10:03:27;;;;;;;8.23;7.70;;;11.10;16.60;;;;;;4929579;29;20191;-78
2024/02/21 10:05:55;;;;;;;8.53;7.93;;;11.00;16.70;;;;;;4937817;29;20459;-78
2024/02/21 10:08:21;;;;;;;8.90;8.10;;;10.90;16.60;;;;;;4933257;29;20212;-78
2024/02/21 10:10:46;;;;;;;8.50;7.90;;;10.90;16.50;;;;;;4936303;29;20445;-78
2024/02/21 10:13:30;;;;;;;8.70;8.03;;;10.90;16.40;;;;;;4938568;29;20221;-78
2024/02/21 10:16:06;;;;;;;8.23;7.70;;;11.00;16.70;;;;;;4919932;29;20188;-80
2024/02/21 10:18:35;;;;;;;9.07;8.40;;;11.10;16.20;;;;;;4919776;29;20948;-81
2024/02/21 10:21:08;;;;;;;8.50;7.90;;;11.20;16.20;;;;;;4920138;29;20879;-79
2024/02/21 10:23:44;;;;;;;7.90;7.40;;;11.30;15.80;;;;;;4930271;29;20443;-77
2024/02/21 10:26:19;;;;;;;9.30;8.40;;;11.40;15.90;;;;;;4915883;29;21191;-79
2024/02/21 10:28:46;;;;;;;8.43;7.90;;;11.40;15.80;;;;;;4922326;29;20468;-79
2024/02/21 10:31:27;;;;;;;9.53;8.70;;;11.60;15.90;;;;;;4929044;29;20456;-78
2024/02/21 10:34:05;;;;;;;8.30;7.90;;;11.60;15.10;;;;;;4918370;29;20523;-80
2024/02/21 10:36:31;;;;;;;8.30;7.67;;;11.60;15.00;;;;;;4913887;29;20437;-78
2024/02/21 10:38:57;;;;;;;8.13;7.53;;;11.60;14.50;;;;;;4916519;29;20483;-79
2024/02/21 10:41:23;;;;;;;7.63;7.10;;;11.60;14.40;;;;;;4919065;29;20524;-77
2024/02/21 10:43:54;;;;;;;7.60;6.93;;;11.60;13.30;;;;;;4922099;29;20194;-78
2024/02/21 10:46:21;;;;;;;7.23;6.83;;;11.70;13.80;;;;;;4921461;29;20494;-78
2024/02/21 10:48:53;;;;;;;6.73;6.33;;;11.70;13.60;;;;;;4912894;29;20471;-79
2024/02/21 10:51:22;;;;;;;7.67;6.90;;;11.80;13.30;;;;;;4913771;29;20461;-80
2024/02/21 10:54:13;;;;;;;8.20;7.47;;;11.80;13.10;;;;;;4912217;29;20423;-79
2024/02/21 10:56:40;;;;;;;7.50;7.00;;;11.80;12.70;;;;;;4923964;29;20433;-79
2024/02/21 10:59:07;;;;;;;6.90;6.40;;;11.70;12.60;;;;;;4919749;29;20440;-80
2024/02/21 11:01:32;;;;;;;8.27;7.70;;;11.80;13.10;;;;;;4918068;29;20452;-80
2024/02/21 11:04:01;;;;;;;7.43;6.93;;;11.90;13.20;;;;;;4919354;29;20437;-80
2024/02/21 11:06:28;;;;;;;8.03;7.53;;;12.00;12.70;;;;;;4920769;29;20204;-79
2024/02/21 11:09:03;;;;;;;7.17;6.60;;;12.00;12.10;;;;;;4924106;29;20472;-79
2024/02/21 11:11:30;;;;;;;7.10;6.70;;;12.10;11.80;;;;;;4922780;29;20527;-79
2024/02/21 11:14:18;;;;;;;7.80;7.23;;;12.10;11.70;;;;;;4911947;29;20442;-78
2024/02/21 11:16:44;;;;;;;7.33;6.83;;;12.20;12.10;;;;;;4919235;29;20424;-78
2024/02/21 11:19:19;;;;;;;8.67;8.07;;;12.20;12.30;;;;;;4917837;29;20437;-80
2024/02/21 11:21:44;;;;;;;9.03;8.07;;;12.40;12.60;;;;;;4931633;29;20213;-79
2024/02/21 11:24:10;;;;;;;8.53;7.90;;;12.40;11.90;;;;;;4920370;29;20437;-78
2024/02/21 11:26:37;;;;;;;8.40;7.77;;;12.30;11.60;;;;;;4919964;29;20719;-80
2024/02/21 11:29:09;;;;;;;8.00;7.50;;;12.30;12.00;;;;;;4930562;29;20243;-80
2024/02/21 11:31:41;;;;;;;6.80;6.40;;;12.20;12.00;;;;;;4911588;29;20465;-78
2024/02/21 11:34:11;;;;;;;7.97;7.20;;;12.20;12.10;;;;;;4921199;29;20429;-78
2024/02/21 11:36:47;;;;;;;7.10;6.63;;;12.30;13.00;;;;;;4917818;29;20435;-80
2024/02/21 11:39:17;;;;;;;8.00;7.30;;;12.40;12.70;;;;;;4904310;29;20445;-78
2024/02/21 11:41:43;;;;;;;6.97;6.57;;;12.50;12.20;;;;;;4916637;29;20471;-80
2024/02/21 11:44:08;;;;;;;7.90;7.30;;;12.60;11.90;;;;;;4921588;29;20432;-78
2024/02/21 11:46:34;;;;;;;7.77;7.27;;;12.60;11.50;;;;;;4923580;29;20671;-78
2024/02/21 11:49:01;;;;;;;7.93;7.33;;;12.60;11.40;;;;;;4918140;29;20220;-79
2024/02/21 11:51:27;;;;;;;7.93;7.33;;;12.60;11.30;;;;;;4919953;29;20220;-78
2024/02/21 11:53:53;;;;;;;7.90;7.20;;;12.70;11.10;;;;;;4923200;29;20437;-80
2024/02/21 11:56:19;;;;;;;8.77;8.20;;;12.70;10.50;;;;;;4921528;29;20263;-79
2024/02/21 11:58:47;;;;;;;7.90;7.33;;;12.80;10.40;;;;;;4926463;29;20446;-78
2024/02/21 12:01:13;;;;;;;7.53;7.03;;;12.80;8.20;;;;;;4916149;29;20468;-81
2024/02/21 12:03:41;;;;;;;7.63;7.00;;;12.70;7.70;;;;;;4912340;29;20429;-78
2024/02/21 12:06:07;;;;;;;8.03;7.53;;;12.70;7.80;;;;;;4917515;29;20815;-78
2024/02/21 12:08:44;;;;;;;7.07;6.70;;;12.70;7.40;;;;;;4922073;29;20503;-79
2024/02/21 12:11:23;;;;;;;7.30;6.93;;;12.80;7.90;;;;;;4911176;29;20448;-79
2024/02/21 12:14:04;;;;;;;7.23;6.83;;;13.00;7.90;;;;;;4921038;29;20444;-80
2024/02/21 12:16:31;;;;;;;7.47;6.97;;;13.00;7.10;;;;;;4915391;29;20424;-78
2024/02/21 12:18:57;;;;;;;7.30;6.90;;;13.10;7.30;;;;;;4920960;29;20428;-77
2024/02/21 12:21:30;;;;;;;7.93;7.53;;;13.20;7.10;;;;;;4919034;29;20445;-78
2024/02/21 12:23:56;;;;;;;7.33;6.87;;;13.20;6.80;;;;;;4918858;29;20875;-79
2024/02/21 12:26:22;;;;;;;7.63;7.23;;;13.20;7.00;;;;;;4911573;29;20441;-78
2024/02/21 12:28:57;;;;;;;7.20;6.80;;;13.20;6.30;;;;;;4910733;29;20563;-78
2024/02/21 12:31:22;;;;;;;7.10;6.80;;;13.20;7.00;;;;;;4911012;29;20447;-77
2024/02/21 12:33:48;;;;;;;7.07;6.67;;;13.30;7.80;;;;;;4916610;29;20911;-76
2024/02/21 12:36:14;;;;;;;7.03;6.63;;;13.40;7.50;;;;;;4915633;29;20216;-76
2024/02/21 12:38:40;;;;;;;7.40;7.10;;;13.50;6.30;;;;;;4908390;29;20189;-78
2024/02/21 12:41:05;;;;;;;6.90;6.60;;;13.40;6.00;;;;;;4919307;29;20960;-79
2024/02/21 12:43:31;;;;;;;6.37;5.87;;;13.50;6.10;;;;;;4918721;29;20191;-77
2024/02/21 12:45:57;;;;;;;8.00;7.60;;;13.40;6.70;;;;;;4916463;29;20197;-78